Time,TemperatureF,DewpointF,PressureIn,WindDirection,WindDirectionDegrees,WindSpeedMPH,WindSpeedGustMPH,Humidity,HourlyPrecipIn,Conditions,Clouds,dailyrainin,SoftwareType,DateUTC
2013-04-09 00:07:00,67.3,63.0,30.09,SSE,149,2.0,-999.0,86,-99.99,,,0.00,weatherlink.com 1.10,2013-04-09 04:07:00,
2013-04-09 00:22:00,67.1,63.0,30.09,SE,142,2.0,-999.0,86,-99.99,,,0.00,weatherlink.com 1.10,2013-04-09 04:22:00,
2013-04-09 00:37:00,66.9,63.0,30.09,SE,137,2.0,-999.0,86,-99.99,,,0.00,weatherlink.com 1.10,2013-04-09 04:37:00,
2013-04-09 00:52:00,66.7,63.0,30.08,SSE,147,4.0,-999.0,87,-99.99,,,0.00,weatherlink.com 1.10,2013-04-09 04:52:00,
2013-04-09 01:07:00,66.5,63.0,30.09,SSE,147,2.0,-999.0,87,-99.99,,,0.00,weatherlink.com 1.10,2013-04-09 05:07:00,
2013-04-09 01:22:00,66.3,62.0,30.09,SSE,166,4.0,-999.0,87,-99.99,,,0.00,weatherlink.com 1.10,2013-04-09 05:22:00,
2013-04-09 01:37:00,66.0,62.0,30.08,South,171,2.0,-999.0,88,-99.99,,,0.00,weatherlink.com 1.10,2013-04-09 05:37:00,
2013-04-09 01:52:00,65.8,62.0,30.07,South,172,5.0,-999.0,88,-99.99,,,0.00,weatherlink.com 1.10,2013-04-09 05:52:00,
2013-04-09 02:07:00,65.7,62.0,30.07,South,171,2.0,-999.0,89,-99.99,,,0.00,weatherlink.com 1.10,2013-04-09 06:07:00,
2013-04-09 02:22:00,65.6,62.0,30.06,South,189,1.0,-999.0,89,-99.99,,,0.00,weatherlink.com 1.10,2013-04-09 06:22:00,
2013-04-09 02:37:00,65.4,62.0,30.06,South,189,0.0,-999.0,89,-99.99,,,0.00,weatherlink.com 1.10,2013-04-09 06:37:00,
2013-04-09 02:52:00,65.3,62.0,30.05,SSE,165,1.0,-999.0,90,-99.99,,,0.00,weatherlink.com 1.10,2013-04-09 06:52:00,
2013-04-09 03:07:00,65.1,63.0,30.05,SE,141,2.0,-999.0,91,-99.99,,,0.00,weatherlink.com 1.10,2013-04-09 07:07:00,
2013-04-09 03:23:00,65.0,62.0,30.05,SE,133,2.0,-999.0,91,-99.99,,,0.00,weatherlink.com 1.10,2013-04-09 07:23:00,
2013-04-09 03:38:00,65.0,63.0,30.04,SE,144,4.0,-999.0,92,-99.99,,,0.00,weatherlink.com 1.10,2013-04-09 07:38:00,
2013-04-09 03:53:00,64.9,63.0,30.04,SE,136,2.0,-999.0,92,-99.99,,,0.00,weatherlink.com 1.10,2013-04-09 07:53:00,
2013-04-09 04:08:00,64.8,63.0,30.04,SSE,157,5.0,-999.0,92,-99.99,,,0.00,weatherlink.com 1.10,2013-04-09 08:08:00,
2013-04-09 04:23:00,64.8,63.0,30.04,SSE,150,2.0,-999.0,93,-99.99,,,0.00,weatherlink.com 1.10,2013-04-09 08:23:00,
2013-04-09 04:38:00,64.9,63.0,30.04,SSE,161,4.0,-999.0,93,-99.99,,,0.00,weatherlink.com 1.10,2013-04-09 08:38:00,
2013-04-09 04:53:00,65.0,63.0,30.04,South,169,5.0,-999.0,93,-99.99,,,0.00,weatherlink.com 1.10,2013-04-09 08:53:00,
2013-04-09 05:08:00,65.4,63.0,30.04,SSE,167,4.0,-999.0,93,-99.99,,,0.00,weatherlink.com 1.10,2013-04-09 09:08:00,
2013-04-09 05:23:00,65.7,64.0,30.04,SSE,167,6.0,-999.0,93,-99.99,,,0.00,weatherlink.com 1.10,2013-04-09 09:23:00,
2013-04-09 05:38:00,65.9,64.0,30.05,South,177,6.0,-999.0,93,-99.99,,,0.00,weatherlink.com 1.10,2013-04-09 09:38:00,
2013-04-09 05:53:00,65.8,64.0,30.05,South,177,6.0,-999.0,92,-99.99,,,0.00,weatherlink.com 1.10,2013-04-09 09:53:00,
2013-04-09 06:08:00,65.6,63.0,30.05,SSE,159,1.0,-999.0,92,-99.99,,,0.00,weatherlink.com 1.10,2013-04-09 10:08:00,
2013-04-09 06:23:00,-999.0,-99.9,30.05,North,-999,-999.0,-999.0,-999,-99.99,,,0.00,weatherlink.com 1.10,2013-04-09 10:23:00,
2013-04-09 06:38:00,-999.0,-99.9,30.06,North,-999,-999.0,-999.0,-999,-99.99,,,0.00,weatherlink.com 1.10,2013-04-09 10:38:00,
2013-04-09 06:53:00,-999.0,-99.9,30.07,North,-999,-999.0,-999.0,-999,-99.99,,,0.00,weatherlink.com 1.10,2013-04-09 10:53:00,
2013-04-09 07:08:00,-999.0,-99.9,30.08,North,-999,-999.0,-999.0,-999,-99.99,,,0.00,weatherlink.com 1.10,2013-04-09 11:08:00,
2013-04-09 07:29:00,-999.0,-99.9,30.08,North,-999,-999.0,-999.0,-999,-99.99,,,0.00,weatherlink.com 1.10,2013-04-09 11:29:00,
2013-04-09 07:45:00,65.4,64.0,30.09,SE,126,2.0,-999.0,94,-99.99,,,0.00,weatherlink.com 1.10,2013-04-09 11:45:00,
2013-04-09 08:02:00,65.9,64.0,30.09,ESE,117,1.0,-999.0,94,-99.99,,,0.00,weatherlink.com 1.10,2013-04-09 12:02:00,
2013-04-09 08:34:00,68.2,66.0,30.10,ESE,118,2.0,-999.0,92,-99.99,,,0.00,weatherlink.com 1.10,2013-04-09 12:34:00,
2013-04-09 08:52:00,70.1,67.0,30.11,SSE,165,5.0,-999.0,89,-99.99,,,0.00,weatherlink.com 1.10,2013-04-09 12:52:00,
2013-04-09 09:08:00,71.5,67.0,30.11,South,183,2.0,-999.0,85,-99.99,,,0.00,weatherlink.com 1.10,2013-04-09 13:08:00,
2013-04-09 09:25:00,72.7,67.0,30.11,ESE,115,6.0,-999.0,82,-99.99,,,0.00,weatherlink.com 1.10,2013-04-09 13:25:00,
2013-04-09 09:40:00,73.9,67.0,30.12,SSE,165,9.0,-999.0,78,-99.99,,,0.00,weatherlink.com 1.10,2013-04-09 13:40:00,
2013-04-09 09:57:00,74.6,67.0,30.13,South,182,10.0,-999.0,76,-99.99,,,0.00,weatherlink.com 1.10,2013-04-09 13:57:00,
2013-04-09 10:30:00,76.2,66.0,30.13,SSE,160,7.0,-999.0,70,-99.99,,,0.00,weatherlink.com 1.10,2013-04-09 14:30:00,
2013-04-09 10:46:00,76.0,66.0,30.13,SSE,147,6.0,-999.0,70,-99.99,,,0.00,weatherlink.com 1.10,2013-04-09 14:46:00,
2013-04-09 11:03:00,77.5,65.0,30.13,SSE,163,9.0,-999.0,65,-99.99,,,0.00,weatherlink.com 1.10,2013-04-09 15:03:00,
2013-04-09 11:19:00,76.6,65.0,30.13,SE,129,7.0,-999.0,68,-99.99,,,0.00,weatherlink.com 1.10,2013-04-09 15:19:00,
2013-04-09 11:52:00,78.6,64.0,30.13,SSE,153,9.0,-999.0,61,-99.99,,,0.00,weatherlink.com 1.10,2013-04-09 15:52:00,
2013-04-09 12:08:00,79.4,63.0,30.12,ESE,122,7.0,-999.0,58,-99.99,,,0.00,weatherlink.com 1.10,2013-04-09 16:08:00,
2013-04-09 12:25:00,79.8,63.0,30.11,SSE,148,12.0,-999.0,57,-99.99,,,0.00,weatherlink.com 1.10,2013-04-09 16:25:00,
2013-04-09 12:43:00,79.4,63.0,30.11,SSW,193,4.0,-999.0,57,-99.99,,,0.00,weatherlink.com 1.10,2013-04-09 16:43:00,
2013-04-09 12:58:00,80.3,62.0,30.11,SE,146,7.0,-999.0,54,-99.99,,,0.00,weatherlink.com 1.10,2013-04-09 16:58:00,
2013-04-09 13:30:00,79.6,62.0,30.10,South,170,5.0,-999.0,56,-99.99,,,0.00,weatherlink.com 1.10,2013-04-09 17:30:00,
2013-04-09 13:47:00,79.8,63.0,30.09,ESE,102,7.0,-999.0,56,-99.99,,,0.00,weatherlink.com 1.10,2013-04-09 17:47:00,
2013-04-09 14:04:00,80.1,62.0,30.09,SSE,151,4.0,-999.0,54,-99.99,,,0.00,weatherlink.com 1.10,2013-04-09 18:04:00,
2013-04-09 14:20:00,80.1,61.0,30.09,SE,142,13.0,-999.0,52,-99.99,,,0.00,weatherlink.com 1.10,2013-04-09 18:20:00,
2013-04-09 14:36:00,80.1,61.0,30.09,SE,137,8.0,-999.0,52,-99.99,,,0.00,weatherlink.com 1.10,2013-04-09 18:36:00,
2013-04-09 14:53:00,80.4,61.0,30.08,SSE,167,2.0,-999.0,52,-99.99,,,0.00,weatherlink.com 1.10,2013-04-09 18:53:00,
2013-04-09 15:42:00,80.7,61.0,30.06,ESE,121,12.0,-999.0,52,-99.99,,,0.00,weatherlink.com 1.10,2013-04-09 19:42:00,
2013-04-09 15:58:00,79.7,63.0,30.06,SE,144,9.0,-999.0,56,-99.99,,,0.00,weatherlink.com 1.10,2013-04-09 19:58:00,
2013-04-09 16:15:00,79.6,62.0,30.06,SSE,159,13.0,-999.0,55,-99.99,,,0.00,weatherlink.com 1.10,2013-04-09 20:15:00,
2013-04-09 16:31:00,79.3,62.0,30.06,SE,146,8.0,-999.0,56,-99.99,,,0.00,weatherlink.com 1.10,2013-04-09 20:31:00,
2013-04-09 16:48:00,79.3,61.0,30.06,ESE,123,9.0,-999.0,54,-99.99,,,0.00,weatherlink.com 1.10,2013-04-09 20:48:00,
2013-04-09 17:04:00,79.4,60.0,30.06,South,170,5.0,-999.0,52,-99.99,,,0.00,weatherlink.com 1.10,2013-04-09 21:04:00,
2013-04-09 17:20:00,79.6,60.0,30.06,SE,142,12.0,-999.0,52,-99.99,,,0.00,weatherlink.com 1.10,2013-04-09 21:20:00,
2013-04-09 17:37:00,78.8,61.0,30.06,SSE,149,13.0,-999.0,54,-99.99,,,0.00,weatherlink.com 1.10,2013-04-09 21:37:00,
2013-04-09 17:53:00,77.3,60.0,30.07,South,170,13.0,-999.0,56,-99.99,,,0.00,weatherlink.com 1.10,2013-04-09 21:53:00,
2013-04-09 18:09:00,77.7,59.0,30.07,South,173,7.0,-999.0,53,-99.99,,,0.00,weatherlink.com 1.10,2013-04-09 22:09:00,
2013-04-09 18:25:00,77.4,58.0,30.07,SE,126,13.0,-999.0,52,-99.99,,,0.00,weatherlink.com 1.10,2013-04-09 22:25:00,
2013-04-09 18:42:00,76.7,58.0,30.07,SE,143,7.0,-999.0,53,-99.99,,,0.00,weatherlink.com 1.10,2013-04-09 22:42:00,
2013-04-09 18:58:00,76.3,57.0,30.07,ESE,123,5.0,-999.0,51,-99.99,,,0.00,weatherlink.com 1.10,2013-04-09 22:58:00,
2013-04-09 19:15:00,75.8,55.0,30.07,ESE,123,12.0,-999.0,49,-99.99,,,0.00,weatherlink.com 1.10,2013-04-09 23:15:00,
2013-04-09 19:31:00,75.4,55.0,30.07,SE,139,7.0,-999.0,50,-99.99,,,0.00,weatherlink.com 1.10,2013-04-09 23:31:00,
2013-04-09 19:48:00,74.7,56.0,30.07,East,97,6.0,-999.0,52,-99.99,,,0.00,weatherlink.com 1.10,2013-04-09 23:48:00,
2013-04-09 20:04:00,74.2,57.0,30.07,ENE,70,6.0,-999.0,56,-99.99,,,0.00,weatherlink.com 1.10,2013-04-10 00:04:00,
2013-04-09 20:21:00,73.4,58.0,30.08,SE,140,7.0,-999.0,59,-99.99,,,0.00,weatherlink.com 1.10,2013-04-10 00:21:00,
2013-04-09 20:37:00,72.8,59.0,30.08,SE,142,4.0,-999.0,62,-99.99,,,0.00,weatherlink.com 1.10,2013-04-10 00:37:00,
2013-04-09 20:53:00,72.2,60.0,30.09,SE,135,5.0,-999.0,65,-99.99,,,0.00,weatherlink.com 1.10,2013-04-10 00:53:00,
2013-04-09 21:09:00,71.5,60.0,30.09,SSE,161,2.0,-999.0,67,-99.99,,,0.00,weatherlink.com 1.10,2013-04-10 01:09:00,
2013-04-09 21:42:00,70.4,60.0,30.10,SE,137,7.0,-999.0,69,-99.99,,,0.00,weatherlink.com 1.10,2013-04-10 01:42:00,
2013-04-09 21:59:00,69.9,60.0,30.10,SE,139,8.0,-999.0,70,-99.99,,,0.00,weatherlink.com 1.10,2013-04-10 01:59:00,
2013-04-09 22:15:00,69.5,60.0,30.10,SE,126,2.0,-999.0,72,-99.99,,,0.00,weatherlink.com 1.10,2013-04-10 02:15:00,
2013-04-09 22:32:00,69.0,60.0,30.10,SE,145,5.0,-999.0,74,-99.99,,,0.00,weatherlink.com 1.10,2013-04-10 02:32:00,
2013-04-09 22:48:00,68.6,60.0,30.10,ESE,118,4.0,-999.0,75,-99.99,,,0.00,weatherlink.com 1.10,2013-04-10 02:48:00,
2013-04-09 23:04:00,68.3,60.0,30.09,ESE,123,4.0,-999.0,76,-99.99,,,0.00,weatherlink.com 1.10,2013-04-10 03:04:00,
2013-04-09 23:19:00,68.0,61.0,30.09,ESE,119,1.0,-999.0,78,-99.99,,,0.00,weatherlink.com 1.10,2013-04-10 03:19:00,
2013-04-09 23:34:00,67.8,61.0,30.09,ESE,113,4.0,-999.0,80,-99.99,,,0.00,weatherlink.com 1.10,2013-04-10 03:34:00,
2013-04-09 23:49:00,67.2,61.0,30.09,ESE,113,4.0,-999.0,81,-99.99,,,0.00,weatherlink.com 1.10,2013-04-10 03:49:00,